createdAt,value
2019-02-12T00:04:56.268Z,101602.74
2019-02-12T00:10:01.722Z,101608.09
2019-02-12T00:15:07.418Z,101606.75
2019-02-12T00:20:12.930Z,101609.37
2019-02-12T00:25:18.263Z,101608.03
2019-02-12T00:30:23.672Z,101612.92
2019-02-12T00:35:29.002Z,101600.98
2019-02-12T00:40:34.422Z,101589.91
2019-02-12T00:45:39.797Z,101590.34
2019-02-12T00:50:45.170Z,101588.14
2019-02-12T00:55:50.642Z,101579.28
2019-02-12T01:00:56.039Z,101582.41
2019-02-12T01:06:01.354Z,101599.64
2019-02-12T01:11:07.030Z,101592.14
2019-02-12T01:16:12.493Z,101592.19
2019-02-12T01:21:25.867Z,101588.66
2019-02-12T01:26:25.015Z,101586.45
2019-02-12T01:31:30.470Z,101580.30
2019-02-12T01:36:35.801Z,101586.06
2019-02-12T01:41:41.287Z,101578.08
2019-02-12T01:46:46.812Z,101588.72
2019-02-12T01:51:52.274Z,101586.95
2019-02-12T02:02:24.935Z,101580.11
2019-02-12T02:23:16.594Z,101572.64
2019-02-12T02:28:21.967Z,101578.43
2019-02-12T02:33:27.371Z,101581.92
2019-02-12T02:38:32.685Z,101576.69
2019-02-12T02:43:38.083Z,101571.43
2019-02-12T02:48:43.551Z,101571.48
2019-02-12T02:53:48.961Z,101572.39
2019-02-12T02:58:54.293Z,101565.34
2019-02-12T03:03:59.852Z,101559.14
2019-02-12T03:09:07.886Z,101554.70
2019-02-12T03:14:13.326Z,101536.98
2019-02-12T03:19:18.726Z,101540.09
2019-02-12T03:24:24.166Z,101560.03
2019-02-12T03:29:29.566Z,101551.16
2019-02-12T03:34:35.016Z,101560.47
2019-02-12T03:39:40.427Z,101548.47
2019-02-12T03:44:45.830Z,101546.66
2019-02-12T03:49:51.182Z,101543.52
2019-02-12T03:54:56.581Z,101545.84
2019-02-12T04:00:01.995Z,101545.84
2019-02-12T04:05:07.753Z,101547.62
2019-02-12T04:10:13.286Z,101542.28
2019-02-12T04:15:18.621Z,101544.92
2019-02-12T04:20:24.038Z,101543.58
2019-02-12T04:25:29.385Z,101537.36
2019-02-12T04:30:34.673Z,101542.27
2019-02-12T04:35:40.032Z,101553.78
2019-02-12T04:40:45.308Z,101553.78
2019-02-12T04:45:50.853Z,101546.23
2019-02-12T04:50:56.209Z,101549.77
2019-02-12T04:56:01.664Z,101542.65
2019-02-12T05:01:07.007Z,101542.61
2019-02-12T05:06:12.532Z,101543.08
2019-02-12T05:11:17.973Z,101537.72
2019-02-12T05:16:23.466Z,101547.47
2019-02-12T05:21:28.977Z,101550.09
2019-02-12T05:26:34.386Z,101549.19
2019-02-12T05:31:39.671Z,101544.72
2019-02-12T05:36:45.091Z,101547.38
2019-02-12T05:41:50.566Z,101536.27
2019-02-12T05:46:56.011Z,101536.30
2019-02-12T05:52:01.296Z,101543.39
2019-02-12T05:57:06.705Z,101536.73
2019-02-12T06:02:12.151Z,101539.81
2019-02-12T06:07:17.647Z,101535.34
2019-02-12T06:12:22.996Z,101532.25
2019-02-12T06:17:28.756Z,101539.78
2019-02-12T06:22:34.165Z,101538.91
2019-02-12T06:27:39.639Z,101538.00
2019-02-12T06:32:45.031Z,101541.95
2019-02-12T06:37:50.471Z,101540.20
2019-02-12T06:42:55.907Z,101544.19
2019-02-12T06:48:01.398Z,101538.33
2019-02-12T06:53:12.631Z,101538.33
2019-02-12T06:58:13.749Z,101542.79
2019-02-12T07:03:22.725Z,101543.70
2019-02-12T07:08:36.174Z,101544.14
2019-02-12T07:13:49.409Z,101551.27
2019-02-12T07:19:15.353Z,101545.99
2019-02-12T07:24:36.270Z,101547.75
2019-02-12T07:29:53.497Z,101554.89
2019-02-12T07:35:13.356Z,101548.72
2019-02-12T07:40:31.966Z,101552.36
2019-02-12T07:45:56.710Z,101551.93
2019-02-12T07:51:32.106Z,101552.36
2019-02-12T07:56:54.643Z,101557.65
2019-02-12T08:02:27.452Z,101562.45
2019-02-12T08:07:46.730Z,101560.64
2019-02-12T08:13:06.336Z,101573.84
2019-02-12T08:18:24.395Z,101576.46
2019-02-12T08:23:41.796Z,101566.64
2019-02-12T08:29:08.276Z,101570.15
2019-02-12T08:34:26.875Z,101579.47
2019-02-12T08:39:50.344Z,101568.81
2019-02-12T08:45:13.281Z,101577.67
2019-02-12T08:50:32.743Z,101586.56
2019-02-12T08:56:05.234Z,101587.41
2019-02-12T09:01:38.291Z,101589.53
2019-02-12T09:06:57.722Z,101589.86
2019-02-12T09:12:18.336Z,101589.87
2019-02-12T09:17:40.189Z,101590.73
2019-02-12T09:22:58.236Z,101594.73
2019-02-12T09:28:18.030Z,101586.23
2019-02-12T09:33:38.166Z,101599.05
2019-02-12T09:39:06.690Z,101593.28
2019-02-12T09:44:28.630Z,101598.11
2019-02-12T09:50:02.446Z,101599.77
2019-02-12T09:55:24.217Z,101583.19
2019-02-12T10:00:37.951Z,101588.31
2019-02-12T10:05:54.162Z,101589.06
2019-02-12T10:11:12.036Z,101586.02
2019-02-12T10:16:31.858Z,101600.31
2019-02-12T10:21:56.320Z,101598.36
2019-02-12T10:27:13.377Z,101599.58
2019-02-12T10:32:16.875Z,101600.44
2019-02-12T10:37:22.461Z,101605.15
2019-02-12T10:42:27.960Z,101607.70
2019-02-12T10:47:33.363Z,101603.46
2019-02-12T10:52:38.783Z,101619.34
2019-02-12T10:57:44.183Z,101619.34
2019-02-12T11:02:49.605Z,101614.69
2019-02-12T11:07:55.189Z,101620.89
2019-02-12T11:13:00.657Z,101628.37
2019-02-12T11:18:06.255Z,101632.65
2019-02-12T11:23:11.747Z,101638.52
2019-02-12T11:28:17.167Z,101636.93
2019-02-12T11:33:22.562Z,101637.03
2019-02-12T11:38:28.293Z,101645.88
2019-02-12T11:43:34.070Z,101644.63
2019-02-12T11:48:39.755Z,101645.03
2019-02-12T11:53:45.161Z,101644.14
2019-02-12T11:58:50.635Z,101647.73
2019-02-12T12:03:56.067Z,101644.56
2019-02-12T12:09:01.594Z,101645.32
2019-02-12T12:14:07.193Z,101634.22
2019-02-12T12:19:12.645Z,101636.02
2019-02-12T12:24:18.006Z,101629.87
2019-02-12T12:29:23.450Z,101633.48
2019-02-12T12:34:29.455Z,101633.48
2019-02-12T12:39:34.875Z,101622.73
2019-02-12T12:44:40.330Z,101620.80
2019-02-12T12:49:45.885Z,101615.59
2019-02-12T12:54:51.364Z,101609.30
2019-02-12T12:59:56.750Z,101597.00
2019-02-12T13:05:02.725Z,101590.44
2019-02-12T13:10:10.581Z,101585.13
2019-02-12T13:15:16.062Z,101585.06
2019-02-12T13:20:21.634Z,101576.37
2019-02-12T13:25:27.302Z,101581.77
2019-02-12T13:30:32.813Z,101581.08
2019-02-12T13:35:38.683Z,101579.75
2019-02-12T13:40:44.882Z,101586.73
2019-02-12T13:45:51.302Z,101580.46
2019-02-12T13:50:57.094Z,101578.21
2019-02-12T13:56:02.543Z,101589.92
2019-02-12T14:01:08.023Z,101597.63
2019-02-12T14:06:13.762Z,101594.10
2019-02-12T14:11:19.282Z,101603.45
2019-02-12T14:16:25.021Z,101604.37
2019-02-12T14:21:30.623Z,101611.86
2019-02-12T14:26:36.301Z,101607.15
2019-02-12T14:31:41.921Z,101604.45
2019-02-12T14:36:47.462Z,101597.88
2019-02-12T14:41:53.014Z,101595.13
2019-02-12T14:46:58.644Z,101591.15
2019-02-12T14:52:04.154Z,101589.75
2019-02-12T14:57:09.853Z,101586.22
2019-02-12T15:02:15.362Z,101584.02
2019-02-12T15:07:20.882Z,101581.75
2019-02-12T15:12:26.564Z,101585.69
2019-02-12T15:17:32.182Z,101583.09
2019-02-12T15:22:37.722Z,101584.46
2019-02-12T15:27:43.681Z,101583.19
2019-02-12T15:32:49.322Z,101582.80
2019-02-12T15:37:54.842Z,101581.06
2019-02-12T15:43:00.384Z,101576.66
2019-02-12T15:48:05.902Z,101590.03
2019-02-12T15:53:11.443Z,101577.09
2019-02-12T15:58:16.914Z,101572.14
2019-02-12T16:03:22.544Z,101567.75
2019-02-12T16:08:30.019Z,101578.97
2019-02-12T16:13:36.719Z,101580.28
2019-02-12T16:18:43.357Z,101573.16
2019-02-12T16:23:49.542Z,101569.97
2019-02-12T16:28:55.042Z,101563.64
2019-02-12T16:34:00.761Z,101567.65
2019-02-12T16:39:07.602Z,101569.05
2019-02-12T16:44:13.182Z,101565.69
2019-02-12T16:49:18.782Z,101574.23
2019-02-12T16:54:24.382Z,101574.72
2019-02-12T16:59:30.590Z,101574.77
2019-02-12T17:04:36.241Z,101576.16
2019-02-12T17:09:52.169Z,101573.09
2019-02-12T17:14:52.002Z,101582.01
2019-02-12T17:19:57.502Z,101574.05
2019-02-12T17:25:03.002Z,101576.77
2019-02-12T17:30:11.013Z,101580.72
2019-02-12T17:35:16.661Z,101578.60
2019-02-12T17:40:22.302Z,101584.86
2019-02-12T17:45:27.840Z,101584.88
2019-02-12T17:50:33.203Z,101585.38
2019-02-12T17:55:38.802Z,101589.41
2019-02-12T18:00:45.942Z,101583.62
2019-02-12T18:05:51.562Z,101597.42
2019-02-12T18:10:57.242Z,101591.21
2019-02-12T18:16:02.944Z,101596.97
2019-02-12T18:21:08.481Z,101596.54
2019-02-12T18:26:14.081Z,101598.30
2019-02-12T18:31:19.614Z,101609.42
2019-02-12T18:36:25.227Z,101607.20
2019-02-12T18:41:30.781Z,101605.49
2019-02-12T18:46:36.440Z,101605.02
2019-02-12T18:51:42.002Z,101610.78
2019-02-12T18:56:47.602Z,101617.41
2019-02-12T19:01:53.122Z,101616.95
2019-02-12T19:06:58.682Z,101618.34
2019-02-12T19:12:04.123Z,101626.34
2019-02-12T19:17:09.602Z,101619.67
2019-02-12T19:22:15.244Z,101625.92
2019-02-12T19:27:20.782Z,101615.70
2019-02-12T19:32:26.304Z,101609.08
2019-02-12T19:37:31.862Z,101627.31
2019-02-12T19:42:37.362Z,101624.23
2019-02-12T19:47:43.003Z,101624.24
2019-02-12T19:52:49.655Z,101615.84
2019-02-12T19:57:55.281Z,101623.03
2019-02-12T20:03:00.943Z,101618.61
2019-02-12T20:08:06.441Z,101611.52
2019-02-12T20:13:11.883Z,101613.70
2019-02-12T20:18:17.622Z,101590.21
2019-02-12T20:23:23.316Z,101604.80
2019-02-12T20:28:28.862Z,101595.48
2019-02-12T20:33:34.438Z,101599.04
2019-02-12T20:38:40.161Z,101590.14
2019-02-12T20:43:45.922Z,101591.42
2019-02-12T20:48:51.382Z,101590.56
2019-02-12T20:53:57.062Z,101592.76
2019-02-12T20:59:02.624Z,101590.98
2019-02-12T21:04:08.222Z,101594.94
2019-02-12T21:09:14.938Z,101592.75
2019-02-12T21:14:20.422Z,101592.73
2019-02-12T21:19:25.862Z,101599.41
2019-02-12T21:24:31.462Z,101601.66
2019-02-12T21:29:36.982Z,101600.73
2019-02-12T21:34:42.461Z,101596.26
2019-02-12T21:39:47.945Z,101596.73
2019-02-12T21:44:53.421Z,101597.16
2019-02-12T21:49:59.061Z,101596.31
2019-02-12T21:55:05.107Z,101590.08
2019-02-12T22:00:14.204Z,101582.94
2019-02-12T22:05:19.702Z,101580.73
2019-02-12T22:10:25.463Z,101563.41
2019-02-12T22:15:30.993Z,101566.03
2019-02-12T22:20:36.562Z,101572.69
2019-02-12T22:25:42.081Z,101570.02
2019-02-12T22:30:47.602Z,101554.99
2019-02-12T22:35:53.245Z,101564.33
2019-02-12T22:40:58.775Z,101558.16
2019-02-12T22:46:04.205Z,101558.11
2019-02-12T22:51:09.606Z,101558.58
2019-02-12T22:56:15.121Z,101563.44
2019-02-12T23:01:27.901Z,101555.92
2019-02-12T23:06:33.413Z,101555.92
2019-02-12T23:11:39.042Z,101544.41
2019-02-12T23:16:44.454Z,101546.66
2019-02-12T23:21:49.982Z,101552.90
2019-02-12T23:26:55.481Z,101543.59
2019-02-12T23:32:00.983Z,101543.64
2019-02-12T23:37:06.482Z,101536.55
2019-02-12T23:42:11.933Z,101536.56
2019-02-12T23:47:17.422Z,101531.23
2019-02-12T23:52:23.001Z,101535.17
2019-02-12T23:57:28.562Z,101531.16
